createdAt,value
2023-01-19T00:00:56.392Z,23.33
2023-01-19T00:03:24.793Z,24.33
2023-01-19T00:05:52.227Z,29.67
2023-01-19T00:08:19.240Z,30.75
2023-01-19T00:31:43.619Z,25.33
2023-01-19T00:34:17.868Z,35.00
2023-01-19T00:36:50.055Z,40.75
2023-01-19T00:39:43.612Z,32.67
2023-01-19T00:42:29.264Z,26.00
2023-01-19T00:44:57.406Z,23.00
2023-01-19T01:00:14.499Z,24.00
2023-01-19T01:02:44.606Z,27.33
2023-01-19T01:05:12.532Z,20.33
2023-01-19T01:07:40.827Z,23.00
2023-01-19T01:10:09.526Z,23.33
2023-01-19T01:12:37.601Z,28.00
2023-01-19T01:15:06.098Z,19.67
2023-01-19T01:17:34.380Z,30.00
2023-01-19T01:20:01.292Z,25.00
2023-01-19T01:22:28.273Z,27.00
2023-01-19T01:24:55.098Z,21.00
2023-01-19T01:27:22.421Z,25.00
2023-01-19T01:29:49.151Z,21.67
2023-01-19T01:32:17.285Z,17.00
2023-01-19T01:34:45.526Z,23.67
2023-01-19T01:37:12.300Z,22.00
2023-01-19T02:05:04.904Z,22.67
2023-01-19T02:07:53.105Z,19.00
2023-01-19T02:10:23.188Z,23.67
2023-01-19T02:12:50.877Z,26.00
2023-01-19T02:15:19.875Z,22.67
2023-01-19T02:17:47.709Z,23.00
2023-01-19T02:20:17.761Z,21.33
2023-01-19T02:22:49.515Z,18.00
2023-01-19T02:25:19.764Z,28.67
2023-01-19T02:36:27.933Z,21.67
2023-01-19T02:39:45.797Z,23.67
2023-01-19T02:42:57.433Z,22.67
2023-01-19T02:45:32.850Z,29.33
2023-01-19T02:47:59.677Z,26.00
2023-01-19T02:50:46.343Z,27.00
2023-01-19T02:53:39.325Z,26.00
2023-01-19T02:56:34.947Z,18.00
2023-01-19T02:59:21.327Z,21.00
2023-01-19T03:02:12.841Z,22.00
2023-01-19T03:04:58.873Z,23.67
2023-01-19T03:07:44.792Z,23.67
2023-01-19T03:10:26.494Z,24.67
2023-01-19T03:13:01.970Z,22.33
2023-01-19T03:15:40.404Z,23.33
2023-01-19T03:18:12.424Z,20.33
2023-01-19T03:20:41.802Z,25.00
2023-01-19T03:23:13.765Z,22.33
2023-01-19T03:25:46.377Z,26.67
2023-01-19T03:28:18.611Z,25.67
2023-01-19T03:30:56.275Z,21.67
2023-01-19T03:33:39.313Z,22.00
2023-01-19T03:37:11.450Z,20.00
2023-01-19T03:39:48.031Z,19.00
2023-01-19T03:42:17.671Z,27.67
2023-01-19T03:44:47.324Z,20.33
2023-01-19T03:47:17.172Z,24.67
2023-01-19T03:49:47.701Z,28.33
2023-01-19T03:52:14.763Z,23.00
2023-01-19T03:54:41.887Z,20.33
2023-01-19T03:57:08.797Z,25.00
2023-01-19T03:59:37.520Z,18.33
2023-01-19T04:02:06.321Z,24.33
2023-01-19T04:04:34.573Z,19.33
2023-01-19T04:07:01.501Z,17.67
2023-01-19T04:09:28.572Z,26.33
2023-01-19T04:11:57.514Z,23.67
2023-01-19T04:14:24.400Z,25.33
2023-01-19T04:16:51.270Z,14.00
2023-01-19T04:19:18.190Z,25.67
2023-01-19T04:21:48.152Z,24.00
2023-01-19T04:24:15.251Z,22.33
2023-01-19T04:26:42.535Z,24.67
2023-01-19T04:29:09.492Z,19.33
2023-01-19T04:31:36.732Z,26.00
2023-01-19T04:34:03.591Z,26.33
2023-01-19T04:36:30.413Z,24.67
2023-01-19T04:38:58.593Z,23.00
2023-01-19T04:41:25.349Z,5.00
2023-01-19T04:43:52.340Z,25.00
2023-01-19T04:46:19.242Z,23.67
2023-01-19T04:48:46.016Z,23.00
2023-01-19T04:51:13.028Z,25.00
2023-01-19T04:53:39.848Z,14.33
2023-01-19T04:56:08.157Z,26.00
2023-01-19T04:58:37.180Z,29.00
2023-01-19T05:01:08.662Z,26.67
2023-01-19T05:03:35.773Z,21.00
2023-01-19T05:06:02.561Z,26.00
2023-01-19T05:08:29.321Z,29.00
2023-01-19T05:10:56.104Z,22.67
2023-01-19T05:13:24.617Z,26.67
2023-01-19T05:15:51.355Z,25.33
2023-01-19T05:18:18.723Z,24.33
2023-01-19T05:20:45.528Z,25.67
2023-01-19T05:23:12.432Z,24.00
2023-01-19T05:25:39.587Z,23.67
2023-01-19T05:28:06.459Z,21.33
2023-01-19T05:30:34.661Z,23.67
2023-01-19T05:33:01.724Z,23.67
2023-01-19T05:35:35.699Z,25.00
2023-01-19T05:38:03.986Z,20.67
2023-01-19T05:40:30.806Z,32.33
2023-01-19T05:42:59.663Z,22.00
2023-01-19T05:45:27.875Z,27.00
2023-01-19T05:47:56.291Z,29.00
2023-01-19T05:50:23.415Z,22.33
2023-01-19T05:52:50.231Z,23.67
2023-01-19T05:55:17.108Z,23.33
2023-01-19T05:57:43.902Z,18.00
2023-01-19T06:00:12.773Z,25.33
2023-01-19T06:02:40.179Z,27.00
2023-01-19T06:05:12.041Z,23.33
2023-01-19T06:07:49.844Z,26.67
2023-01-19T06:10:18.288Z,17.67
2023-01-19T06:12:52.254Z,32.00
2023-01-19T06:15:28.053Z,36.00
2023-01-19T06:17:55.194Z,23.33
2023-01-19T06:21:10.875Z,23.67
2023-01-19T06:26:48.801Z,26.33
2023-01-19T06:29:17.812Z,24.67
2023-01-19T06:31:44.942Z,26.33
2023-01-19T06:34:11.811Z,25.67
2023-01-19T06:42:49.906Z,25.00
2023-01-19T06:45:51.239Z,26.33
2023-01-19T06:53:01.105Z,20.33
2023-01-19T06:55:28.217Z,27.00
2023-01-19T06:57:59.390Z,24.67
2023-01-19T07:00:26.911Z,20.33
2023-01-19T07:03:41.711Z,24.00
2023-01-19T07:06:08.673Z,21.67
2023-01-19T07:08:37.094Z,26.00
2023-01-19T07:11:24.713Z,19.00
2023-01-19T07:13:55.086Z,25.00
2023-01-19T07:35:57.555Z,33.00
2023-01-19T07:46:28.626Z,19.33
2023-01-19T07:48:56.189Z,25.33
2023-01-19T07:51:22.954Z,24.33
2023-01-19T07:53:50.800Z,26.00
2023-01-19T07:56:17.959Z,24.67
2023-01-19T07:58:44.815Z,26.33
2023-01-19T08:01:13.705Z,21.00
2023-01-19T08:03:40.970Z,20.67
2023-01-19T08:06:17.585Z,24.33
2023-01-19T08:08:44.354Z,32.00
2023-01-19T08:11:11.348Z,26.00
2023-01-19T08:13:38.368Z,21.00
2023-01-19T08:16:06.203Z,25.00
2023-01-19T08:18:34.584Z,27.33
2023-01-19T08:21:01.732Z,21.33
2023-01-19T08:23:28.520Z,30.67
2023-01-19T08:25:55.388Z,24.67
2023-01-19T08:28:22.336Z,13.00
2023-01-19T08:30:50.536Z,17.67
2023-01-19T08:33:18.002Z,23.67
2023-01-19T08:35:49.979Z,20.67
2023-01-19T08:38:17.601Z,28.00
2023-01-19T08:40:45.312Z,22.00
2023-01-19T08:43:15.246Z,27.00
2023-01-19T08:45:45.333Z,24.00
2023-01-19T08:48:13.104Z,31.25
2023-01-19T08:50:40.208Z,24.67
2023-01-19T08:53:10.052Z,19.00
2023-01-19T08:55:37.932Z,22.00
2023-01-19T08:58:06.830Z,23.33
2023-01-19T09:00:35.239Z,21.00
2023-01-19T09:03:02.703Z,16.00
2023-01-19T09:05:29.997Z,30.67
2023-01-19T09:07:57.239Z,27.00
2023-01-19T09:13:13.823Z,25.00
2023-01-19T09:15:43.551Z,23.67
2023-01-19T09:18:17.970Z,17.67
2023-01-19T09:21:14.151Z,23.00
2023-01-19T09:24:07.887Z,25.33
2023-01-19T09:30:24.456Z,27.00
2023-01-19T09:32:51.483Z,21.67
2023-01-19T09:35:18.375Z,21.00
2023-01-19T09:37:51.260Z,21.00
2023-01-19T09:40:20.661Z,21.33
2023-01-19T09:42:55.680Z,26.00
2023-01-19T09:53:51.970Z,24.33
2023-01-19T09:56:21.363Z,24.00
2023-01-19T09:58:51.189Z,29.00
2023-01-19T10:01:38.559Z,27.67
2023-01-19T10:04:34.461Z,20.00
2023-01-19T10:07:32.259Z,21.67
2023-01-19T10:13:30.415Z,17.67
2023-01-19T10:16:23.939Z,18.67
2023-01-19T10:18:59.926Z,23.33
2023-01-19T10:21:41.002Z,22.00
2023-01-19T10:24:21.006Z,29.67
2023-01-19T10:26:51.059Z,22.00
2023-01-19T10:29:26.182Z,19.00
2023-01-19T10:32:04.949Z,27.33
2023-01-19T10:35:12.873Z,20.00
2023-01-19T10:37:43.217Z,30.33
2023-01-19T10:40:33.627Z,23.67
2023-01-19T10:43:58.834Z,34.67
2023-01-19T10:46:38.429Z,23.33
2023-01-19T10:49:51.199Z,21.33
2023-01-19T10:52:35.193Z,19.67
2023-01-19T10:55:32.989Z,51.00
2023-01-19T10:58:37.923Z,32.67
2023-01-19T11:01:25.542Z,29.67
2023-01-19T11:03:55.399Z,26.33
2023-01-19T11:06:27.071Z,24.00
2023-01-19T11:09:12.357Z,34.00
2023-01-19T11:12:18.635Z,38.67
2023-01-19T11:14:47.318Z,46.33
2023-01-19T11:17:25.457Z,50.33
2023-01-19T11:20:02.352Z,50.33
2023-01-19T11:22:33.506Z,25.00
2023-01-19T11:25:03.281Z,16.50
2023-01-19T11:27:35.887Z,17.25
2023-01-19T11:30:16.690Z,16.00
2023-01-19T11:32:43.575Z,15.50
2023-01-19T11:35:36.288Z,16.75
2023-01-19T11:38:21.614Z,16.50
2023-01-19T11:40:54.598Z,22.25
2023-01-19T11:43:36.640Z,22.50
2023-01-19T11:46:16.893Z,23.25
2023-01-19T11:48:52.270Z,15.00
2023-01-19T11:51:23.115Z,21.75
2023-01-19T11:53:52.844Z,21.25
2023-01-19T11:56:26.388Z,18.50
2023-01-19T11:58:55.587Z,16.25
2023-01-19T12:01:27.873Z,16.25
2023-01-19T12:04:03.709Z,17.00
2023-01-19T12:06:34.930Z,13.25
2023-01-19T12:09:15.173Z,15.50
2023-01-19T12:11:48.186Z,11.00
2023-01-19T12:14:34.943Z,12.75
2023-01-19T12:17:07.141Z,12.00
2023-01-19T12:19:46.091Z,17.50
2023-01-19T12:22:17.020Z,15.75
2023-01-19T12:24:52.991Z,13.75
2023-01-19T12:27:37.415Z,12.75
2023-01-19T12:30:19.707Z,12.00
2023-01-19T12:32:47.441Z,13.50
2023-01-19T12:35:55.957Z,14.25
2023-01-19T12:38:35.859Z,16.50
2023-01-19T12:41:31.582Z,16.75
2023-01-19T12:44:22.978Z,15.50
2023-01-19T12:46:55.249Z,12.50
2023-01-19T12:49:27.881Z,9.25
2023-01-19T12:52:16.155Z,34.00
2023-01-19T12:54:52.864Z,15.75
2023-01-19T12:57:26.876Z,15.75
2023-01-19T13:00:00.308Z,12.50
2023-01-19T13:02:55.061Z,11.75
2023-01-19T13:05:45.912Z,13.00
2023-01-19T13:08:57.680Z,12.75
2023-01-19T13:11:27.881Z,5.50
2023-01-19T13:14:38.211Z,13.25
2023-01-19T13:17:26.768Z,13.00
2023-01-19T13:20:22.853Z,14.00
2023-01-19T13:23:21.629Z,14.00
2023-01-19T13:26:00.819Z,12.50
2023-01-19T13:28:38.910Z,7.75
2023-01-19T13:31:07.669Z,8.00
2023-01-19T13:33:46.572Z,11.00
2023-01-19T13:36:23.570Z,9.25
2023-01-19T13:38:52.114Z,13.00
2023-01-19T13:41:23.869Z,10.00
2023-01-19T13:44:00.974Z,12.75
2023-01-19T13:46:30.871Z,11.75
2023-01-19T13:49:04.570Z,13.00
2023-01-19T13:51:32.829Z,14.00
2023-01-19T13:54:00.481Z,13.25
2023-01-19T13:56:29.325Z,13.00
2023-01-19T13:59:08.279Z,16.50
2023-01-19T14:01:35.990Z,10.75
2023-01-19T14:04:03.637Z,9.50
2023-01-19T14:06:47.644Z,10.75
2023-01-19T14:09:19.034Z,13.00
2023-01-19T14:12:05.040Z,9.25
2023-01-19T14:14:32.968Z,11.25
2023-01-19T14:16:59.931Z,15.50
2023-01-19T14:19:26.935Z,10.75
2023-01-19T14:22:04.875Z,14.25
2023-01-19T14:24:32.261Z,10.50
2023-01-19T14:27:27.462Z,12.50
2023-01-19T14:30:20.343Z,13.25
2023-01-19T14:32:47.727Z,14.25
2023-01-19T14:35:24.705Z,17.75
2023-01-19T14:37:54.166Z,19.75
2023-01-19T14:40:24.296Z,18.50
2023-01-19T14:42:56.845Z,17.25
2023-01-19T14:45:29.584Z,15.75
2023-01-19T14:48:01.786Z,14.00
2023-01-19T14:50:34.709Z,14.50
2023-01-19T14:53:23.313Z,14.25
2023-01-19T14:56:00.409Z,16.00
2023-01-19T14:58:33.078Z,9.33
2023-01-19T15:01:05.677Z,17.67
2023-01-19T15:03:49.299Z,17.33
2023-01-19T15:06:55.908Z,38.33
2023-01-19T15:09:32.134Z,21.00
2023-01-19T15:11:59.555Z,17.67
2023-01-19T15:14:27.317Z,10.67
2023-01-19T15:16:54.731Z,16.50
2023-01-19T15:19:21.561Z,15.00
2023-01-19T15:21:48.896Z,13.75
2023-01-19T15:24:20.819Z,11.50
2023-01-19T15:26:49.145Z,13.75
2023-01-19T15:29:24.651Z,14.50
2023-01-19T15:32:17.253Z,9.50
2023-01-19T15:34:44.479Z,11.50
2023-01-19T15:37:13.229Z,10.75
2023-01-19T15:40:20.442Z,12.50
2023-01-19T15:42:50.058Z,9.50
2023-01-19T15:45:37.868Z,8.25
2023-01-19T15:48:08.112Z,11.75
2023-01-19T15:50:38.625Z,10.50
2023-01-19T15:53:06.330Z,6.25
2023-01-19T15:55:35.034Z,9.00
2023-01-19T15:58:04.898Z,5.00
2023-01-19T16:00:35.003Z,7.50
2023-01-19T16:03:03.197Z,3.25
2023-01-19T16:05:41.941Z,12.75
2023-01-19T16:08:09.987Z,8.50
2023-01-19T16:10:44.073Z,9.25
2023-01-19T16:13:42.965Z,11.00
2023-01-19T16:42:57.182Z,35.00
2023-01-19T16:49:08.271Z,23.25
2023-01-19T16:52:05.090Z,24.00
2023-01-19T16:55:26.684Z,24.75
2023-01-19T16:57:55.454Z,16.50
2023-01-19T17:00:22.504Z,20.00
2023-01-19T17:02:49.409Z,22.67
2023-01-19T17:05:16.390Z,12.00
2023-01-19T17:07:43.481Z,19.33
2023-01-19T17:10:11.401Z,18.00
2023-01-19T17:12:38.403Z,20.33
2023-01-19T17:15:08.543Z,27.67
2023-01-19T17:17:35.542Z,48.33
2023-01-19T17:20:02.292Z,52.33
2023-01-19T17:22:29.407Z,34.33
2023-01-19T17:24:56.295Z,20.33
2023-01-19T17:27:23.152Z,22.67
2023-01-19T17:29:50.095Z,24.67
2023-01-19T17:32:19.027Z,14.33
2023-01-19T17:34:49.112Z,26.00
2023-01-19T17:37:15.958Z,24.00
2023-01-19T17:39:42.880Z,14.33
2023-01-19T17:42:09.702Z,23.00
2023-01-19T17:44:36.550Z,22.33
2023-01-19T17:47:03.416Z,40.33
2023-01-19T17:49:31.618Z,52.67
2023-01-19T17:51:58.519Z,53.67
2023-01-19T17:54:25.467Z,40.33
2023-01-19T17:56:52.196Z,34.67
2023-01-19T17:59:19.082Z,61.67
2023-01-19T18:01:45.914Z,51.00
2023-01-19T18:04:12.825Z,72.00
2023-01-19T18:06:41.305Z,50.67
2023-01-19T18:09:08.857Z,26.67
2023-01-19T18:11:36.003Z,26.67
2023-01-19T18:14:02.960Z,24.00
2023-01-19T18:16:30.470Z,18.50
2023-01-19T18:18:57.809Z,23.33
2023-01-19T18:21:26.832Z,26.00
2023-01-19T18:24:00.274Z,25.00
2023-01-19T18:26:27.596Z,16.00
2023-01-19T18:28:56.571Z,6.25
2023-01-19T18:31:24.515Z,18.25
2023-01-19T18:33:51.520Z,18.75
2023-01-19T18:36:18.771Z,21.75
2023-01-19T18:38:45.640Z,19.00
2023-01-19T18:41:16.865Z,18.50
2023-01-19T18:43:43.948Z,28.50
2023-01-19T18:46:11.685Z,22.75
2023-01-19T18:48:39.730Z,25.75
2023-01-19T18:51:08.388Z,19.75
2023-01-19T18:53:35.283Z,20.00
2023-01-19T18:56:03.073Z,16.00
2023-01-19T18:58:33.173Z,19.25
2023-01-19T19:01:01.573Z,21.00
2023-01-19T19:03:29.353Z,20.00
2023-01-19T19:05:57.087Z,17.25
2023-01-19T19:08:23.934Z,23.67
2023-01-19T19:10:50.718Z,20.50
2023-01-19T19:13:18.018Z,17.00
2023-01-19T19:15:46.160Z,22.50
2023-01-19T19:18:13.012Z,19.67
2023-01-19T19:20:40.479Z,16.50
2023-01-19T19:23:07.377Z,25.00
2023-01-19T19:25:34.447Z,25.00
2023-01-19T19:28:01.346Z,21.67
2023-01-19T19:30:28.280Z,28.67
2023-01-19T19:32:57.104Z,26.00
2023-01-19T19:35:25.655Z,26.67
2023-01-19T19:37:52.496Z,32.33
2023-01-19T19:40:19.495Z,33.33
2023-01-19T19:42:46.245Z,39.00
2023-01-19T19:45:13.151Z,38.00
2023-01-19T19:47:40.063Z,32.33
2023-01-19T19:50:11.576Z,38.00
2023-01-19T19:52:39.499Z,53.33
2023-01-19T19:55:09.154Z,41.00
2023-01-19T19:57:36.227Z,25.00
2023-01-19T20:00:04.565Z,22.00
2023-01-19T20:02:36.397Z,21.00
2023-01-19T20:05:04.101Z,23.00
2023-01-19T20:07:32.491Z,42.67
2023-01-19T20:09:59.303Z,36.33
2023-01-19T20:12:26.475Z,23.33
2023-01-19T20:14:53.297Z,22.67
2023-01-19T20:17:20.491Z,22.67
2023-01-19T20:19:47.382Z,14.33
2023-01-19T20:22:15.552Z,14.67
2023-01-19T20:24:43.778Z,21.67
2023-01-19T20:27:10.681Z,35.33
2023-01-19T20:29:37.895Z,55.00
2023-01-19T20:32:05.143Z,30.33
2023-01-19T20:34:33.834Z,20.33
2023-01-19T20:37:01.126Z,21.00
2023-01-19T20:39:28.080Z,25.67
2023-01-19T20:41:56.475Z,30.67
2023-01-19T20:44:26.221Z,26.33
2023-01-19T20:46:54.800Z,35.00
2023-01-19T20:49:22.784Z,31.00
2023-01-19T20:51:49.846Z,30.67
2023-01-19T20:54:21.187Z,36.00
2023-01-19T20:56:48.616Z,31.33
2023-01-19T20:59:17.749Z,29.67
2023-01-19T21:01:45.304Z,25.67
2023-01-19T21:04:12.922Z,25.00
2023-01-19T21:06:40.811Z,25.00
2023-01-19T21:09:08.063Z,28.33
2023-01-19T21:11:35.612Z,34.00
2023-01-19T21:14:02.738Z,43.00
2023-01-19T21:16:35.216Z,34.00
2023-01-19T21:19:02.679Z,36.00
2023-01-19T21:21:31.422Z,32.00
2023-01-19T21:24:01.501Z,24.67
2023-01-19T21:26:30.034Z,25.67
2023-01-19T21:28:57.277Z,30.00
2023-01-19T21:31:27.110Z,37.67
2023-01-19T21:33:56.319Z,59.33
2023-01-19T21:36:24.413Z,48.33
2023-01-19T21:38:51.356Z,40.00
2023-01-19T21:41:18.497Z,35.67
2023-01-19T21:43:45.405Z,40.00
2023-01-19T21:46:16.955Z,32.33
2023-01-19T21:48:43.987Z,32.00
2023-01-19T21:51:13.545Z,33.33
2023-01-19T21:53:41.725Z,33.67
2023-01-19T21:56:10.260Z,35.67
2023-01-19T21:58:37.888Z,50.00
2023-01-19T22:01:09.392Z,45.67
2023-01-19T22:03:37.757Z,35.33
2023-01-19T22:06:06.119Z,28.00
2023-01-19T22:08:35.003Z,23.67
2023-01-19T22:11:05.233Z,23.00
2023-01-19T22:13:33.156Z,26.67
2023-01-19T22:16:00.725Z,25.67
2023-01-19T22:18:28.169Z,23.00
2023-01-19T22:20:55.485Z,23.67
2023-01-19T22:23:22.430Z,24.00
2023-01-19T22:25:50.719Z,32.33
2023-01-19T22:28:17.544Z,27.67
2023-01-19T22:30:44.539Z,33.67
2023-01-19T22:33:11.418Z,27.33
2023-01-19T22:35:38.202Z,33.00
2023-01-19T22:38:05.034Z,26.67
2023-01-19T22:40:31.845Z,30.33
2023-01-19T22:43:00.200Z,29.33
2023-01-19T22:45:27.203Z,35.33
2023-01-19T22:47:54.084Z,36.00
2023-01-19T22:50:20.987Z,30.33
2023-01-19T22:52:48.653Z,34.33
2023-01-19T22:55:15.904Z,40.33
2023-01-19T22:57:43.216Z,33.33
2023-01-19T23:00:13.939Z,24.00
2023-01-19T23:02:40.727Z,27.33
2023-01-19T23:05:07.881Z,30.00
2023-01-19T23:07:34.758Z,41.00
2023-01-19T23:10:01.553Z,34.00
2023-01-19T23:12:28.475Z,32.00
2023-01-19T23:14:55.664Z,33.33
2023-01-19T23:17:24.033Z,32.67
2023-01-19T23:19:50.809Z,33.00
2023-01-19T23:22:17.578Z,35.00
2023-01-19T23:24:44.427Z,34.33
2023-01-19T23:27:11.687Z,32.33
2023-01-19T23:29:38.516Z,36.67
2023-01-19T23:32:05.403Z,39.00
2023-01-19T23:34:33.774Z,51.67
2023-01-19T23:37:00.592Z,43.67
2023-01-19T23:39:27.666Z,38.00
2023-01-19T23:41:54.684Z,37.67
2023-01-19T23:44:21.519Z,31.33
2023-01-19T23:46:48.709Z,34.67
2023-01-19T23:49:15.677Z,36.67
2023-01-19T23:51:44.125Z,38.33
2023-01-19T23:54:11.189Z,48.33
2023-01-19T23:56:38.807Z,39.00
2023-01-19T23:59:08.849Z,25.00
